Ashland, New York
Current Conditions -  °F | °C
As of 2:51 AM on Thursday 18 Dec 2014 (Local Time) from KALB Reporting Station
Light Snow Light Snow  
Wind Chill: 28°   Ceiling: 2300
Heat Index: 35°   Visibility: 9mi
Dew Point: 29°   Wind: 9mph
Humidity: 78%   Direction: 260°W
Pressure: 29.85"   Gusts: NA
Location:  42.3°N, 74.33°W
Report Text: KALB 180751Z 26008KT 9SM -SN OVC023 02/M02 A2985 RMK AO2 SLP111 P0000 T00171017
Loading
Personal Weather Stations






























Interactive Weather Map New forecast layout! Learn more

10-Day Weather Forecast

Advertisements
Track Severe Weather on mobile